sensor_id;sensor_type;location;lat;lon;timestamp;temperature;humidity
17715;DHT22;8977;50.902;4.314;2023-01-30T00:00:50;7.50;99.90
17715;DHT22;8977;50.902;4.314;2023-01-30T00:03:18;7.50;99.90
17715;DHT22;8977;50.902;4.314;2023-01-30T00:05:44;7.40;99.90
17715;DHT22;8977;50.902;4.314;2023-01-30T00:08:13;7.40;99.90
17715;DHT22;8977;50.902;4.314;2023-01-30T00:10:40;7.50;99.90
17715;DHT22;8977;50.902;4.314;2023-01-30T00:13:07;7.50;99.90
17715;DHT22;8977;50.902;4.314;2023-01-30T00:15:33;7.50;99.90
17715;DHT22;8977;50.902;4.314;2023-01-30T00:18:00;7.50;99.90
17715;DHT22;8977;50.902;4.314;2023-01-30T00:20:27;7.50;99.90
17715;DHT22;8977;50.902;4.314;2023-01-30T00:22:54;7.50;99.90
17715;DHT22;8977;50.902;4.314;2023-01-30T00:25:22;7.50;99.90
17715;DHT22;8977;50.902;4.314;2023-01-30T00:27:50;7.50;99.90
17715;DHT22;8977;50.902;4.314;2023-01-30T00:30:17;7.50;99.90
17715;DHT22;8977;50.902;4.314;2023-01-30T00:32:44;7.60;99.90
17715;DHT22;8977;50.902;4.314;2023-01-30T00:35:11;7.50;99.90
17715;DHT22;8977;50.902;4.314;2023-01-30T00:37:38;7.50;99.90
17715;DHT22;8977;50.902;4.314;2023-01-30T00:40:05;7.40;99.90
17715;DHT22;8977;50.902;4.314;2023-01-30T00:42:34;7.60;99.90
17715;DHT22;8977;50.902;4.314;2023-01-30T00:45:18;7.60;99.90
17715;DHT22;8977;50.902;4.314;2023-01-30T00:48:02;7.50;99.90
17715;DHT22;8977;50.902;4.314;2023-01-30T00:50:29;7.50;99.90
17715;DHT22;8977;50.902;4.314;2023-01-30T00:53:07;7.50;99.90
17715;DHT22;8977;50.902;4.314;2023-01-30T00:55:34;7.50;99.90
17715;DHT22;8977;50.902;4.314;2023-01-30T00:58:02;7.60;99.90
17715;DHT22;8977;50.902;4.314;2023-01-30T01:00:29;7.50;99.90
17715;DHT22;8977;50.902;4.314;2023-01-30T01:02:56;7.60;99.90
17715;DHT22;8977;50.902;4.314;2023-01-30T01:05:23;7.60;99.90
17715;DHT22;8977;50.902;4.314;2023-01-30T01:07:50;7.60;99.90
17715;DHT22;8977;50.902;4.314;2023-01-30T01:10:17;7.60;99.90
17715;DHT22;8977;50.902;4.314;2023-01-30T01:12:44;7.60;99.90
17715;DHT22;8977;50.902;4.314;2023-01-30T01:15:13;7.60;99.90
17715;DHT22;8977;50.902;4.314;2023-01-30T01:17:41;7.70;99.90
17715;DHT22;8977;50.902;4.314;2023-01-30T01:20:09;7.70;99.90
17715;DHT22;8977;50.902;4.314;2023-01-30T01:22:36;7.60;99.90
17715;DHT22;8977;50.902;4.314;2023-01-30T01:25:03;7.70;99.90
17715;DHT22;8977;50.902;4.314;2023-01-30T01:27:30;7.60;99.90
17715;DHT22;8977;50.902;4.314;2023-01-30T01:29:57;7.60;99.90
17715;DHT22;8977;50.902;4.314;2023-01-30T01:32:25;7.60;99.90
17715;DHT22;8977;50.902;4.314;2023-01-30T01:34:52;7.70;99.90
17715;DHT22;8977;50.902;4.314;2023-01-30T01:37:19;7.70;99.90
17715;DHT22;8977;50.902;4.314;2023-01-30T01:39:46;7.80;99.90
17715;DHT22;8977;50.902;4.314;2023-01-30T01:42:34;7.70;99.90
17715;DHT22;8977;50.902;4.314;2023-01-30T01:45:09;7.70;99.90
17715;DHT22;8977;50.902;4.314;2023-01-30T01:47:42;7.70;99.90
17715;DHT22;8977;50.902;4.314;2023-01-30T01:50:12;7.70;99.90
17715;DHT22;8977;50.902;4.314;2023-01-30T01:52:41;7.80;99.90
17715;DHT22;8977;50.902;4.314;2023-01-30T01:55:10;7.70;99.90
17715;DHT22;8977;50.902;4.314;2023-01-30T01:57:40;7.70;99.90
17715;DHT22;8977;50.902;4.314;2023-01-30T02:00:10;7.70;99.90
17715;DHT22;8977;50.902;4.314;2023-01-30T02:02:40;7.80;99.90
17715;DHT22;8977;50.902;4.314;2023-01-30T02:05:08;7.80;99.90
17715;DHT22;8977;50.902;4.314;2023-01-30T02:07:40;7.80;99.90
17715;DHT22;8977;50.902;4.314;2023-01-30T02:10:10;7.90;99.90
17715;DHT22;8977;50.902;4.314;2023-01-30T02:12:39;7.90;99.90
17715;DHT22;8977;50.902;4.314;2023-01-30T02:15:07;7.80;99.90
17715;DHT22;8977;50.902;4.314;2023-01-30T02:17:34;7.90;99.90
17715;DHT22;8977;50.902;4.314;2023-01-30T02:20:05;7.90;99.90
17715;DHT22;8977;50.902;4.314;2023-01-30T02:22:54;7.90;99.90
17715;DHT22;8977;50.902;4.314;2023-01-30T02:31:42;7.90;99.90
17715;DHT22;8977;50.902;4.314;2023-01-30T02:34:29;7.90;99.90
17715;DHT22;8977;50.902;4.314;2023-01-30T02:37:05;8.00;99.90
17715;DHT22;8977;50.902;4.314;2023-01-30T02:39:41;8.00;99.90
17715;DHT22;8977;50.902;4.314;2023-01-30T02:42:19;8.00;99.90
17715;DHT22;8977;50.902;4.314;2023-01-30T02:44:53;8.00;99.90
17715;DHT22;8977;50.902;4.314;2023-01-30T02:47:27;8.00;99.90
17715;DHT22;8977;50.902;4.314;2023-01-30T02:49:59;8.10;99.90
17715;DHT22;8977;50.902;4.314;2023-01-30T02:52:29;8.00;99.90
17715;DHT22;8977;50.902;4.314;2023-01-30T02:54:56;8.00;99.90
17715;DHT22;8977;50.902;4.314;2023-01-30T02:57:24;8.10;99.90
17715;DHT22;8977;50.902;4.314;2023-01-30T02:59:56;8.10;99.90
17715;DHT22;8977;50.902;4.314;2023-01-30T03:05:40;8.10;99.90
17715;DHT22;8977;50.902;4.314;2023-01-30T03:08:19;8.10;99.90
17715;DHT22;8977;50.902;4.314;2023-01-30T03:10:54;8.10;99.90
17715;DHT22;8977;50.902;4.314;2023-01-30T03:13:32;8.20;99.90
17715;DHT22;8977;50.902;4.314;2023-01-30T03:16:03;8.20;99.90
17715;DHT22;8977;50.902;4.314;2023-01-30T03:18:34;8.20;99.90
17715;DHT22;8977;50.902;4.314;2023-01-30T03:21:05;8.20;99.90
17715;DHT22;8977;50.902;4.314;2023-01-30T03:23:32;8.20;99.90
17715;DHT22;8977;50.902;4.314;2023-01-30T03:25:59;8.30;99.90
17715;DHT22;8977;50.902;4.314;2023-01-30T03:28:27;8.30;99.90
17715;DHT22;8977;50.902;4.314;2023-01-30T03:30:54;8.30;99.90
17715;DHT22;8977;50.902;4.314;2023-01-30T03:33:21;8.20;99.90
17715;DHT22;8977;50.902;4.314;2023-01-30T03:35:51;8.20;99.90
17715;DHT22;8977;50.902;4.314;2023-01-30T03:38:19;8.30;99.90
17715;DHT22;8977;50.902;4.314;2023-01-30T03:40:46;8.30;99.90
17715;DHT22;8977;50.902;4.314;2023-01-30T03:43:13;8.30;99.90
17715;DHT22;8977;50.902;4.314;2023-01-30T03:45:39;8.20;99.90
17715;DHT22;8977;50.902;4.314;2023-01-30T03:48:06;8.30;99.90
17715;DHT22;8977;50.902;4.314;2023-01-30T03:50:33;8.30;99.90
17715;DHT22;8977;50.902;4.314;2023-01-30T03:53:01;8.30;99.90
17715;DHT22;8977;50.902;4.314;2023-01-30T03:55:28;8.30;99.90
17715;DHT22;8977;50.902;4.314;2023-01-30T03:57:55;8.30;99.90
17715;DHT22;8977;50.902;4.314;2023-01-30T04:00:22;8.30;99.90
17715;DHT22;8977;50.902;4.314;2023-01-30T04:02:49;8.30;99.90
17715;DHT22;8977;50.902;4.314;2023-01-30T04:05:16;8.30;99.90
17715;DHT22;8977;50.902;4.314;2023-01-30T04:07:43;8.30;99.90
17715;DHT22;8977;50.902;4.314;2023-01-30T04:10:11;8.40;99.90
17715;DHT22;8977;50.902;4.314;2023-01-30T04:12:40;8.40;99.90
17715;DHT22;8977;50.902;4.314;2023-01-30T04:15:08;8.40;99.90
17715;DHT22;8977;50.902;4.314;2023-01-30T04:17:35;8.40;99.90
17715;DHT22;8977;50.902;4.314;2023-01-30T04:20:02;8.40;99.90
17715;DHT22;8977;50.902;4.314;2023-01-30T04:22:29;8.30;99.90
17715;DHT22;8977;50.902;4.314;2023-01-30T04:24:56;8.30;99.90
17715;DHT22;8977;50.902;4.314;2023-01-30T04:27:24;8.40;99.90
17715;DHT22;8977;50.902;4.314;2023-01-30T04:29:51;8.40;99.90
17715;DHT22;8977;50.902;4.314;2023-01-30T04:32:18;8.40;99.90
17715;DHT22;8977;50.902;4.314;2023-01-30T04:34:45;8.30;99.90
17715;DHT22;8977;50.902;4.314;2023-01-30T04:37:12;8.40;99.90
17715;DHT22;8977;50.902;4.314;2023-01-30T04:39:39;8.40;99.90
17715;DHT22;8977;50.902;4.314;2023-01-30T04:42:06;8.40;99.90
17715;DHT22;8977;50.902;4.314;2023-01-30T04:44:34;8.50;99.90
17715;DHT22;8977;50.902;4.314;2023-01-30T04:47:01;8.40;99.90
17715;DHT22;8977;50.902;4.314;2023-01-30T04:49:27;8.40;99.90
17715;DHT22;8977;50.902;4.314;2023-01-30T04:51:54;8.60;99.90
17715;DHT22;8977;50.902;4.314;2023-01-30T04:54:21;8.60;99.90
17715;DHT22;8977;50.902;4.314;2023-01-30T04:56:48;8.50;99.90
17715;DHT22;8977;50.902;4.314;2023-01-30T04:59:15;8.60;99.90
17715;DHT22;8977;50.902;4.314;2023-01-30T05:01:43;8.50;99.90
17715;DHT22;8977;50.902;4.314;2023-01-30T05:04:10;8.50;99.90
17715;DHT22;8977;50.902;4.314;2023-01-30T05:06:37;8.50;99.90
17715;DHT22;8977;50.902;4.314;2023-01-30T05:09:04;8.50;99.90
17715;DHT22;8977;50.902;4.314;2023-01-30T05:11:31;8.40;99.90
17715;DHT22;8977;50.902;4.314;2023-01-30T05:13:59;8.50;99.90
17715;DHT22;8977;50.902;4.314;2023-01-30T05:16:26;8.40;99.90
17715;DHT22;8977;50.902;4.314;2023-01-30T05:18:54;8.50;99.90
17715;DHT22;8977;50.902;4.314;2023-01-30T05:21:23;8.50;99.90
17715;DHT22;8977;50.902;4.314;2023-01-30T05:23:52;8.60;99.90
17715;DHT22;8977;50.902;4.314;2023-01-30T05:26:20;8.50;99.90
17715;DHT22;8977;50.902;4.314;2023-01-30T05:28:50;8.50;99.90
17715;DHT22;8977;50.902;4.314;2023-01-30T05:31:17;8.50;99.90
17715;DHT22;8977;50.902;4.314;2023-01-30T05:33:45;8.50;99.90
17715;DHT22;8977;50.902;4.314;2023-01-30T05:36:15;8.50;99.90
17715;DHT22;8977;50.902;4.314;2023-01-30T05:38:43;8.50;99.90
17715;DHT22;8977;50.902;4.314;2023-01-30T05:41:12;8.50;99.90
17715;DHT22;8977;50.902;4.314;2023-01-30T05:43:38;8.50;99.90
17715;DHT22;8977;50.902;4.314;2023-01-30T05:46:06;8.50;99.90
17715;DHT22;8977;50.902;4.314;2023-01-30T05:48:33;8.60;99.90
17715;DHT22;8977;50.902;4.314;2023-01-30T05:51:00;8.70;99.90
17715;DHT22;8977;50.902;4.314;2023-01-30T05:53:30;8.70;99.90
17715;DHT22;8977;50.902;4.314;2023-01-30T05:56:00;8.60;99.90
17715;DHT22;8977;50.902;4.314;2023-01-30T05:58:28;8.60;99.90
17715;DHT22;8977;50.902;4.314;2023-01-30T06:00:59;8.60;99.90
17715;DHT22;8977;50.902;4.314;2023-01-30T06:03:26;8.60;99.90
17715;DHT22;8977;50.902;4.314;2023-01-30T06:05:53;8.60;99.90
17715;DHT22;8977;50.902;4.314;2023-01-30T06:08:19;8.60;99.90
17715;DHT22;8977;50.902;4.314;2023-01-30T06:10:48;8.60;99.90
17715;DHT22;8977;50.902;4.314;2023-01-30T06:13:14;8.60;99.90
17715;DHT22;8977;50.902;4.314;2023-01-30T06:15:42;8.70;99.90
17715;DHT22;8977;50.902;4.314;2023-01-30T06:18:09;8.70;99.90
17715;DHT22;8977;50.902;4.314;2023-01-30T06:20:36;8.70;99.90
17715;DHT22;8977;50.902;4.314;2023-01-30T06:23:03;8.60;99.90
17715;DHT22;8977;50.902;4.314;2023-01-30T06:25:29;8.70;99.90
17715;DHT22;8977;50.902;4.314;2023-01-30T06:27:58;8.70;99.90
17715;DHT22;8977;50.902;4.314;2023-01-30T06:30:24;8.70;99.90
17715;DHT22;8977;50.902;4.314;2023-01-30T06:32:51;8.70;99.90
17715;DHT22;8977;50.902;4.314;2023-01-30T06:35:18;8.80;99.90
17715;DHT22;8977;50.902;4.314;2023-01-30T06:37:45;8.70;99.90
17715;DHT22;8977;50.902;4.314;2023-01-30T06:40:12;8.70;99.90
17715;DHT22;8977;50.902;4.314;2023-01-30T06:42:43;8.80;99.90
17715;DHT22;8977;50.902;4.314;2023-01-30T06:45:12;8.80;99.90
17715;DHT22;8977;50.902;4.314;2023-01-30T06:47:46;9.00;99.90
17715;DHT22;8977;50.902;4.314;2023-01-30T06:50:14;8.90;99.90
17715;DHT22;8977;50.902;4.314;2023-01-30T06:52:43;8.90;99.90
17715;DHT22;8977;50.902;4.314;2023-01-30T06:55:12;8.90;99.90
17715;DHT22;8977;50.902;4.314;2023-01-30T06:57:39;8.90;99.90
17715;DHT22;8977;50.902;4.314;2023-01-30T07:00:08;9.00;99.90
17715;DHT22;8977;50.902;4.314;2023-01-30T07:02:36;8.90;99.90
17715;DHT22;8977;50.902;4.314;2023-01-30T07:05:05;9.00;99.90
17715;DHT22;8977;50.902;4.314;2023-01-30T07:07:32;8.90;99.90
17715;DHT22;8977;50.902;4.314;2023-01-30T07:09:59;8.90;99.90
17715;DHT22;8977;50.902;4.314;2023-01-30T07:12:27;8.90;99.90
17715;DHT22;8977;50.902;4.314;2023-01-30T07:14:54;8.90;99.90
17715;DHT22;8977;50.902;4.314;2023-01-30T07:17:21;8.90;99.90
17715;DHT22;8977;50.902;4.314;2023-01-30T07:19:49;9.00;99.90
17715;DHT22;8977;50.902;4.314;2023-01-30T07:22:16;8.90;99.90
17715;DHT22;8977;50.902;4.314;2023-01-30T07:24:43;8.90;99.90
17715;DHT22;8977;50.902;4.314;2023-01-30T07:27:11;8.90;99.90
17715;DHT22;8977;50.902;4.314;2023-01-30T07:29:39;9.00;99.90
17715;DHT22;8977;50.902;4.314;2023-01-30T07:32:06;9.00;99.90
17715;DHT22;8977;50.902;4.314;2023-01-30T07:34:35;8.90;99.90
17715;DHT22;8977;50.902;4.314;2023-01-30T07:37:04;9.00;99.90
17715;DHT22;8977;50.902;4.314;2023-01-30T07:39:30;9.00;99.90
17715;DHT22;8977;50.902;4.314;2023-01-30T07:41:59;8.90;99.90
17715;DHT22;8977;50.902;4.314;2023-01-30T07:44:26;8.90;99.90
17715;DHT22;8977;50.902;4.314;2023-01-30T07:46:53;9.00;99.90
17715;DHT22;8977;50.902;4.314;2023-01-30T07:49:20;9.00;99.90
17715;DHT22;8977;50.902;4.314;2023-01-30T07:51:46;9.00;99.90
17715;DHT22;8977;50.902;4.314;2023-01-30T07:54:15;9.00;99.90
17715;DHT22;8977;50.902;4.314;2023-01-30T07:56:42;9.00;99.90
17715;DHT22;8977;50.902;4.314;2023-01-30T07:59:09;9.00;99.90
17715;DHT22;8977;50.902;4.314;2023-01-30T08:01:36;9.00;99.90
17715;DHT22;8977;50.902;4.314;2023-01-30T08:04:03;9.00;99.90
17715;DHT22;8977;50.902;4.314;2023-01-30T08:06:30;9.00;99.90
17715;DHT22;8977;50.902;4.314;2023-01-30T08:09:01;9.00;99.90
17715;DHT22;8977;50.902;4.314;2023-01-30T08:11:29;9.10;99.90
17715;DHT22;8977;50.902;4.314;2023-01-30T08:13:56;9.00;99.90
17715;DHT22;8977;50.902;4.314;2023-01-30T08:16:23;9.00;99.90
17715;DHT22;8977;50.902;4.314;2023-01-30T08:18:50;9.00;99.90
17715;DHT22;8977;50.902;4.314;2023-01-30T08:21:17;9.00;99.90
17715;DHT22;8977;50.902;4.314;2023-01-30T08:23:43;9.00;99.90
17715;DHT22;8977;50.902;4.314;2023-01-30T08:26:10;9.00;99.90
17715;DHT22;8977;50.902;4.314;2023-01-30T08:28:39;9.00;99.90
17715;DHT22;8977;50.902;4.314;2023-01-30T08:31:08;9.00;99.90
17715;DHT22;8977;50.902;4.314;2023-01-30T08:33:35;9.00;99.90
17715;DHT22;8977;50.902;4.314;2023-01-30T08:36:02;9.00;99.90
17715;DHT22;8977;50.902;4.314;2023-01-30T08:38:29;8.90;99.90
17715;DHT22;8977;50.902;4.314;2023-01-30T08:40:56;8.90;99.90
17715;DHT22;8977;50.902;4.314;2023-01-30T08:43:25;8.90;99.90
17715;DHT22;8977;50.902;4.314;2023-01-30T08:45:54;8.90;99.90
17715;DHT22;8977;50.902;4.314;2023-01-30T08:48:22;9.00;99.90
17715;DHT22;8977;50.902;4.314;2023-01-30T08:50:51;8.90;99.90
17715;DHT22;8977;50.902;4.314;2023-01-30T08:53:18;8.90;99.90
17715;DHT22;8977;50.902;4.314;2023-01-30T08:55:48;9.00;99.90
17715;DHT22;8977;50.902;4.314;2023-01-30T08:58:15;8.90;99.90
17715;DHT22;8977;50.902;4.314;2023-01-30T09:00:42;8.90;99.90
17715;DHT22;8977;50.902;4.314;2023-01-30T09:03:12;8.90;99.90
17715;DHT22;8977;50.902;4.314;2023-01-30T09:05:39;9.00;99.90
17715;DHT22;8977;50.902;4.314;2023-01-30T09:08:06;8.90;99.90
17715;DHT22;8977;50.902;4.314;2023-01-30T09:10:35;9.00;99.90
17715;DHT22;8977;50.902;4.314;2023-01-30T09:13:02;8.90;99.90
17715;DHT22;8977;50.902;4.314;2023-01-30T09:15:29;9.00;99.90
17715;DHT22;8977;50.902;4.314;2023-01-30T09:17:56;9.00;99.90
17715;DHT22;8977;50.902;4.314;2023-01-30T09:20:25;9.00;99.90
17715;DHT22;8977;50.902;4.314;2023-01-30T09:22:51;9.00;99.90
17715;DHT22;8977;50.902;4.314;2023-01-30T09:25:18;9.00;99.90
17715;DHT22;8977;50.902;4.314;2023-01-30T09:27:47;9.00;99.90
17715;DHT22;8977;50.902;4.314;2023-01-30T09:30:15;9.20;99.90
17715;DHT22;8977;50.902;4.314;2023-01-30T09:32:42;9.10;99.90
17715;DHT22;8977;50.902;4.314;2023-01-30T09:35:09;9.20;99.90
17715;DHT22;8977;50.902;4.314;2023-01-30T09:37:37;9.10;99.90
17715;DHT22;8977;50.902;4.314;2023-01-30T09:40:13;9.10;99.90
17715;DHT22;8977;50.902;4.314;2023-01-30T09:43:00;9.10;99.90
17715;DHT22;8977;50.902;4.314;2023-01-30T09:45:45;9.10;99.90
17715;DHT22;8977;50.902;4.314;2023-01-30T09:48:17;9.10;99.90
17715;DHT22;8977;50.902;4.314;2023-01-30T09:53:58;9.20;99.90
17715;DHT22;8977;50.902;4.314;2023-01-30T09:56:28;9.20;99.90
17715;DHT22;8977;50.902;4.314;2023-01-30T09:58:57;9.20;99.90
17715;DHT22;8977;50.902;4.314;2023-01-30T10:01:29;9.20;99.90
17715;DHT22;8977;50.902;4.314;2023-01-30T10:04:10;9.20;99.90
17715;DHT22;8977;50.902;4.314;2023-01-30T10:06:45;9.20;99.90
17715;DHT22;8977;50.902;4.314;2023-01-30T10:09:20;9.20;99.90
17715;DHT22;8977;50.902;4.314;2023-01-30T10:12:01;9.30;99.90
17715;DHT22;8977;50.902;4.314;2023-01-30T10:14:45;9.40;99.90
17715;DHT22;8977;50.902;4.314;2023-01-30T10:17:32;9.40;99.90
17715;DHT22;8977;50.902;4.314;2023-01-30T10:20:28;9.40;99.90
17715;DHT22;8977;50.902;4.314;2023-01-30T10:23:12;9.50;99.90
17715;DHT22;8977;50.902;4.314;2023-01-30T10:25:47;9.50;99.90
17715;DHT22;8977;50.902;4.314;2023-01-30T10:28:21;9.50;99.90
17715;DHT22;8977;50.902;4.314;2023-01-30T10:30:52;9.50;99.90
17715;DHT22;8977;50.902;4.314;2023-01-30T10:33:23;9.60;99.90
17715;DHT22;8977;50.902;4.314;2023-01-30T10:35:59;9.60;99.90
17715;DHT22;8977;50.902;4.314;2023-01-30T10:38:31;9.60;99.90
17715;DHT22;8977;50.902;4.314;2023-01-30T10:41:05;9.60;99.90
17715;DHT22;8977;50.902;4.314;2023-01-30T10:43:38;9.70;99.90
17715;DHT22;8977;50.902;4.314;2023-01-30T10:46:19;9.70;99.90
17715;DHT22;8977;50.902;4.314;2023-01-30T10:48:54;9.80;99.90
17715;DHT22;8977;50.902;4.314;2023-01-30T10:51:37;9.70;99.90
17715;DHT22;8977;50.902;4.314;2023-01-30T10:54:11;9.80;99.90
17715;DHT22;8977;50.902;4.314;2023-01-30T10:56:46;9.90;99.90
17715;DHT22;8977;50.902;4.314;2023-01-30T10:59:21;9.90;99.90
17715;DHT22;8977;50.902;4.314;2023-01-30T11:01:57;9.80;99.90
17715;DHT22;8977;50.902;4.314;2023-01-30T11:04:30;9.80;99.90
17715;DHT22;8977;50.902;4.314;2023-01-30T11:06:59;10.00;99.90
17715;DHT22;8977;50.902;4.314;2023-01-30T11:09:40;10.00;99.90
17715;DHT22;8977;50.902;4.314;2023-01-30T11:12:09;9.90;99.90
17715;DHT22;8977;50.902;4.314;2023-01-30T11:14:54;9.90;99.90
17715;DHT22;8977;50.902;4.314;2023-01-30T11:17:28;9.90;99.90
17715;DHT22;8977;50.902;4.314;2023-01-30T11:19:57;9.90;99.90
17715;DHT22;8977;50.902;4.314;2023-01-30T11:22:27;9.90;99.90
17715;DHT22;8977;50.902;4.314;2023-01-30T11:25:04;9.80;99.90
17715;DHT22;8977;50.902;4.314;2023-01-30T11:27:33;9.80;99.90
17715;DHT22;8977;50.902;4.314;2023-01-30T11:30:13;9.90;99.90
17715;DHT22;8977;50.902;4.314;2023-01-30T11:32:41;9.80;99.90
17715;DHT22;8977;50.902;4.314;2023-01-30T11:35:33;9.80;99.90
17715;DHT22;8977;50.902;4.314;2023-01-30T11:38:20;9.80;99.90
17715;DHT22;8977;50.902;4.314;2023-01-30T11:40:47;9.90;99.90
17715;DHT22;8977;50.902;4.314;2023-01-30T11:43:15;9.80;99.90
17715;DHT22;8977;50.902;4.314;2023-01-30T11:45:44;9.80;99.90
17715;DHT22;8977;50.902;4.314;2023-01-30T11:48:15;9.90;99.90
17715;DHT22;8977;50.902;4.314;2023-01-30T11:50:45;9.90;99.90
17715;DHT22;8977;50.902;4.314;2023-01-30T11:53:24;9.80;99.90
17715;DHT22;8977;50.902;4.314;2023-01-30T11:55:54;9.80;99.90
17715;DHT22;8977;50.902;4.314;2023-01-30T11:58:29;9.80;99.90
17715;DHT22;8977;50.902;4.314;2023-01-30T12:00:57;9.80;99.90
17715;DHT22;8977;50.902;4.314;2023-01-30T12:03:25;9.80;99.90
17715;DHT22;8977;50.902;4.314;2023-01-30T12:05:54;9.80;99.90
17715;DHT22;8977;50.902;4.314;2023-01-30T12:08:25;9.80;99.90
17715;DHT22;8977;50.902;4.314;2023-01-30T12:10:54;9.80;99.90
17715;DHT22;8977;50.902;4.314;2023-01-30T12:13:28;9.80;99.90
17715;DHT22;8977;50.902;4.314;2023-01-30T12:16:15;9.80;99.90
17715;DHT22;8977;50.902;4.314;2023-01-30T12:18:50;9.80;99.90
17715;DHT22;8977;50.902;4.314;2023-01-30T12:21:26;9.80;99.90
17715;DHT22;8977;50.902;4.314;2023-01-30T12:24:01;9.80;99.90
17715;DHT22;8977;50.902;4.314;2023-01-30T12:26:34;9.70;99.90
17715;DHT22;8977;50.902;4.314;2023-01-30T12:29:18;9.90;99.90
17715;DHT22;8977;50.902;4.314;2023-01-30T12:32:01;9.90;99.90
17715;DHT22;8977;50.902;4.314;2023-01-30T12:34:30;9.80;99.90
17715;DHT22;8977;50.902;4.314;2023-01-30T12:37:05;9.80;99.90
17715;DHT22;8977;50.902;4.314;2023-01-30T12:39:50;9.80;99.90
17715;DHT22;8977;50.902;4.314;2023-01-30T12:42:39;9.70;99.90
17715;DHT22;8977;50.902;4.314;2023-01-30T12:45:19;9.80;99.90
17715;DHT22;8977;50.902;4.314;2023-01-30T12:47:59;9.80;99.90
17715;DHT22;8977;50.902;4.314;2023-01-30T12:50:41;9.90;99.90
17715;DHT22;8977;50.902;4.314;2023-01-30T12:53:31;9.90;99.90
17715;DHT22;8977;50.902;4.314;2023-01-30T12:56:21;9.90;99.90
17715;DHT22;8977;50.902;4.314;2023-01-30T12:58:58;9.90;99.90
17715;DHT22;8977;50.902;4.314;2023-01-30T13:01:34;9.80;99.90
17715;DHT22;8977;50.902;4.314;2023-01-30T13:04:19;9.80;99.90
17715;DHT22;8977;50.902;4.314;2023-01-30T13:07:07;9.80;99.90
17715;DHT22;8977;50.902;4.314;2023-01-30T13:09:41;9.80;99.90
17715;DHT22;8977;50.902;4.314;2023-01-30T13:12:15;9.80;99.90
17715;DHT22;8977;50.902;4.314;2023-01-30T13:14:50;9.90;99.90
17715;DHT22;8977;50.902;4.314;2023-01-30T13:17:40;9.80;99.90
17715;DHT22;8977;50.902;4.314;2023-01-30T13:20:18;9.90;99.90
17715;DHT22;8977;50.902;4.314;2023-01-30T13:22:54;9.80;99.90
17715;DHT22;8977;50.902;4.314;2023-01-30T13:25:28;9.90;99.90
17715;DHT22;8977;50.902;4.314;2023-01-30T13:28:00;9.90;99.90
17715;DHT22;8977;50.902;4.314;2023-01-30T13:30:29;9.90;99.90
17715;DHT22;8977;50.902;4.314;2023-01-30T13:33:00;10.00;99.90
17715;DHT22;8977;50.902;4.314;2023-01-30T13:35:34;10.00;99.90
17715;DHT22;8977;50.902;4.314;2023-01-30T13:38:03;10.00;99.90
17715;DHT22;8977;50.902;4.314;2023-01-30T13:40:36;9.90;99.90
17715;DHT22;8977;50.902;4.314;2023-01-30T13:43:10;9.90;99.90
17715;DHT22;8977;50.902;4.314;2023-01-30T13:45:42;9.90;99.90
17715;DHT22;8977;50.902;4.314;2023-01-30T13:48:22;9.90;99.90
17715;DHT22;8977;50.902;4.314;2023-01-30T13:51:24;9.90;99.90
17715;DHT22;8977;50.902;4.314;2023-01-30T13:53:57;10.00;99.90
17715;DHT22;8977;50.902;4.314;2023-01-30T13:56:30;9.90;99.90
17715;DHT22;8977;50.902;4.314;2023-01-30T13:59:07;9.80;99.90
17715;DHT22;8977;50.902;4.314;2023-01-30T14:04:55;9.90;99.90
17715;DHT22;8977;50.902;4.314;2023-01-30T14:07:27;9.90;99.90
17715;DHT22;8977;50.902;4.314;2023-01-30T14:10:11;10.00;99.90
17715;DHT22;8977;50.902;4.314;2023-01-30T14:12:41;9.90;99.90
17715;DHT22;8977;50.902;4.314;2023-01-30T14:15:21;9.90;99.90
17715;DHT22;8977;50.902;4.314;2023-01-30T14:18:00;9.90;99.90
17715;DHT22;8977;50.902;4.314;2023-01-30T14:20:32;9.90;99.90
17715;DHT22;8977;50.902;4.314;2023-01-30T14:23:00;9.90;99.90
17715;DHT22;8977;50.902;4.314;2023-01-30T14:25:34;10.00;99.90
17715;DHT22;8977;50.902;4.314;2023-01-30T14:31:50;10.00;99.90
17715;DHT22;8977;50.902;4.314;2023-01-30T14:34:45;9.90;99.90
17715;DHT22;8977;50.902;4.314;2023-01-30T14:40:32;9.90;99.90
17715;DHT22;8977;50.902;4.314;2023-01-30T14:49:23;10.00;99.90
17715;DHT22;8977;50.902;4.314;2023-01-30T14:51:51;10.00;99.90
17715;DHT22;8977;50.902;4.314;2023-01-30T14:54:24;10.00;99.90
17715;DHT22;8977;50.902;4.314;2023-01-30T14:56:55;10.00;99.90
17715;DHT22;8977;50.902;4.314;2023-01-30T14:59:26;10.00;99.90
17715;DHT22;8977;50.902;4.314;2023-01-30T15:02:05;9.90;99.90
17715;DHT22;8977;50.902;4.314;2023-01-30T15:04:40;9.90;99.90
17715;DHT22;8977;50.902;4.314;2023-01-30T15:07:11;9.90;99.90
17715;DHT22;8977;50.902;4.314;2023-01-30T15:09:41;10.10;99.90
17715;DHT22;8977;50.902;4.314;2023-01-30T15:12:30;10.00;99.90
17715;DHT22;8977;50.902;4.314;2023-01-30T15:15:16;10.00;99.90
17715;DHT22;8977;50.902;4.314;2023-01-30T15:17:57;10.00;99.90
17715;DHT22;8977;50.902;4.314;2023-01-30T15:20:32;10.00;99.90
17715;DHT22;8977;50.902;4.314;2023-01-30T15:23:31;10.00;99.90
17715;DHT22;8977;50.902;4.314;2023-01-30T15:26:14;10.00;99.90
17715;DHT22;8977;50.902;4.314;2023-01-30T15:28:50;10.00;99.90
17715;DHT22;8977;50.902;4.314;2023-01-30T15:31:22;9.90;99.90
17715;DHT22;8977;50.902;4.314;2023-01-30T15:33:50;9.90;99.90
17715;DHT22;8977;50.902;4.314;2023-01-30T15:36:21;9.90;99.90
17715;DHT22;8977;50.902;4.314;2023-01-30T15:38:58;9.90;99.90
17715;DHT22;8977;50.902;4.314;2023-01-30T15:41:26;9.90;99.90
17715;DHT22;8977;50.902;4.314;2023-01-30T15:44:35;9.90;99.90
17715;DHT22;8977;50.902;4.314;2023-01-30T15:47:21;9.90;99.90
17715;DHT22;8977;50.902;4.314;2023-01-30T15:49:57;9.90;99.90
17715;DHT22;8977;50.902;4.314;2023-01-30T15:52:34;9.90;99.90
17715;DHT22;8977;50.902;4.314;2023-01-30T15:55:02;9.90;99.90
17715;DHT22;8977;50.902;4.314;2023-01-30T15:57:32;9.90;99.90
17715;DHT22;8977;50.902;4.314;2023-01-30T16:00:03;9.90;99.90
17715;DHT22;8977;50.902;4.314;2023-01-30T16:02:32;9.80;99.90
17715;DHT22;8977;50.902;4.314;2023-01-30T16:05:13;9.80;99.90
17715;DHT22;8977;50.902;4.314;2023-01-30T16:07:41;9.90;99.90
17715;DHT22;8977;50.902;4.314;2023-01-30T16:10:12;9.90;99.90
17715;DHT22;8977;50.902;4.314;2023-01-30T16:12:39;9.90;99.90
17715;DHT22;8977;50.902;4.314;2023-01-30T16:15:14;9.90;99.90
17715;DHT22;8977;50.902;4.314;2023-01-30T16:17:43;9.90;99.90
17715;DHT22;8977;50.902;4.314;2023-01-30T16:20:13;9.90;99.90
17715;DHT22;8977;50.902;4.314;2023-01-30T16:22:42;9.90;99.90
17715;DHT22;8977;50.902;4.314;2023-01-30T16:25:16;9.80;99.90
17715;DHT22;8977;50.902;4.314;2023-01-30T16:27:45;9.80;99.90
17715;DHT22;8977;50.902;4.314;2023-01-30T16:30:21;9.80;99.90
17715;DHT22;8977;50.902;4.314;2023-01-30T16:32:51;9.80;99.90
17715;DHT22;8977;50.902;4.314;2023-01-30T16:35:27;9.80;99.90
17715;DHT22;8977;50.902;4.314;2023-01-30T16:37:57;9.80;99.90
17715;DHT22;8977;50.902;4.314;2023-01-30T16:40:28;9.90;99.90
17715;DHT22;8977;50.902;4.314;2023-01-30T16:42:58;9.80;99.90
17715;DHT22;8977;50.902;4.314;2023-01-30T16:46:02;9.80;99.90
17715;DHT22;8977;50.902;4.314;2023-01-30T16:48:47;9.80;99.90
17715;DHT22;8977;50.902;4.314;2023-01-30T16:51:19;9.70;99.90
17715;DHT22;8977;50.902;4.314;2023-01-30T16:53:55;9.80;99.90
17715;DHT22;8977;50.902;4.314;2023-01-30T16:56:23;9.80;99.90